Abegall, Kentucky
Current Conditions -  °F | °C
As of 4:35 AM on Saturday 29 Nov 2014 (Local Time) from KFGX Reporting Station
Clear Clear  
Wind Chill: -3°   Ceiling: Unl
Heat Index:   Visibility: 10mi
Dew Point: -6°   Wind: 8mph
Humidity: 59%   Direction: 180°S
Pressure: 30.09"   Gusts: NA
Location:  38.6546°N, 83.9578°W
Report Text: KFGX 290935Z AUTO 18007KT 10SM CLR 01/M06 A3009 RMK AO2 T00101063
Loading
Personal Weather Stations






























Interactive Weather Map New forecast layout! Learn more

10-Day Weather Forecast

Advertisements
Track Severe Weather on mobile